< < Back
Terminal Aerodrome Forecast


Current Version              Previous Versions:   1  2  3  4  5  6  7  8  9  

Terminal Aerodrome Forecast

221
FTUS42 KFFC 052145 AAB
TAFPDK
TAF AMD
KPDK 052145Z 0522/0618 31016G26KT P6SM VCSH BKN060
     FM060000 31013G23KT P6SM SCT060 SCT250
     FM060400 31008KT P6SM FEW060
     FM061300 32014G24KT P6SM SKC=



Latest METAR

561
SAUS70 KWBC 060000 RRL
MTRPDK
METAR KPDK 052353Z 34016G26KT 10SM CLR 12/04 A2982 RMK AO2 PK WND
32028/2254 SLP099 60002 T01220039 10183 20111 53016


USA.gov is the U.S. government's official web portal to all federal, state and local government web resources and services.